Tiempo atmosférico en la estación meteorológica de Tresviso, Cantabria (912 m.)



Fecha
DESCASC
Temp. máxima en grados centígrados (hora)
DESCASC
Temp. mínima en grados centígrados (hora)
DESCASC
Temp. media en grados centígrados
DESCASC
Racha de viento máxima en m/sg (hora)
DESCASC
Velocidad máxima media en intervalos de 10 minutos(hora)
DESCASC
Precipitaciones diarias en mm
DESCASC
Precipitaciones de 00:00 a 06:00 en mm
DESCASC
Precipitaciones de 06:00 a 12:00 en mm
DESCASC
Precipitaciones de 12:00 a 18:00 en mm
DESCASC
Precipitaciones de 18:00 a 24:00 en mm
DESCASC
04-03-2021 15.5 (14:30) 7.8 (04:00) 11.7 6.39 (17:50) 3.89 (17:50) 0 0 0 0 0
03-03-2021 14.2 (13:30) 5.4 (04:40) 9.8 7.78 (15:30) 4.17 (17:30) 0 0 0 0 0
02-03-2021 11.2 (16:40) 6.6 (23:30) 8.9 9.72 (02:00) 6.39 (02:00) 0 0 0 0 0
01-03-2021 13 (15:40) 4.2 (00:00) 8.6 18.33 (06:10) 9.17 (06:10) 0.4 0 0.2 0 0.2
28-02-2021 7.5 (16:50) -0.3 (00:00) 3.6 6.11 (15:30) 3.06 (15:00) 0 0 0 0 0
27-02-2021 7.2 (15:20) 1.5 (00:00) 4.3 6.11 (06:50) 3.89 (08:00) 0 0 0 0 0
26-02-2021 6.6 (11:30) 5.5 (00:00) 6 5 (21:00) 3.61 (10:10) 0.4 0.2 0.2 0 0
25-02-2021 12.2 (02:00) 6 (00:00) 9.1 11.11 (01:20) 6.11 (02:00) 1 0 0 0 1
24-02-2021 17.1 (15:50) 6.5 (00:00) 11.8 17.78 (19:50) 11.11 (19:20) 0 0 0 0 0
23-02-2021 15.3 (16:10) 4.4 (00:00) 9.9 6.67 (01:40) 3.89 (08:00) 0 0 0 0 0
22-02-2021 9.2 (16:00) 1.7 (00:00) 5.4 12.22 (07:20) 7.78 (05:10) 2.8 2.6 0.2 0 0
21-02-2021 12.8 (07:40) 1.6 (00:00) 7.2 21.67 (09:40) 11.11 (07:00) 21.2 0 0 7.6 13.6
20-02-2021 15.2 (15:30) 10.9 (00:00) 13 32.78 (07:20) 17.78 (07:10) 0 0 0 0 0
19-02-2021 13 (20:20) 6.4 (00:00) 9.7 30 (18:10) 19.44 (18:10) 0.4 0 0 0.2 0.2
18-02-2021 12.4 (01:10) 3.6 (00:00) 8 24.17 (04:30) 13.06 (04:30) 3.4 0 0 3.4 0
17-02-2021 12.4 (12:30) 5.4 (00:00) 8.9 19.72 (21:40) 7.5 (18:40) 0 0 0 0 0
16-02-2021 16.5 (00:10) 6.3 (00:00) 11.4 18.06 (07:40) 10 (00:10) 0.2 0 0 0.2 0
15-02-2021 17.2 (18:10) 9.2 (00:00) 13.2 20.28 (17:30) 12.5 (17:40) 0 0 0 0 0
14-02-2021 14.7 (14:30) 6.9 (00:00) 10.8 5 (22:30) 3.61 (22:10) 0 0 0 0 0
13-02-2021 11 (16:20) 5.4 (00:00) 8.2 8.89 (15:30) 5.28 (11:10) 1 0 1 0 0
12-02-2021 10.8 (00:10) 5.3 (00:00) 8.1 18.61 (13:00) 11.94 (12:40) 15.8 6 8.8 1 0
11-02-2021 12.8 (15:10) 4.7 (00:00) 8.8 5.83 (21:30) 3.33 (11:10) 0.8 0 0 0.8 0
10-02-2021 11.1 (15:10) 2.1 (00:00) 6.6 19.72 (10:20) 11.67 (10:20) 1 0.6 0.4 0 0
09-02-2021 9 (15:40) 2.7 (00:00) 5.9 10.83 (13:00) 6.67 (08:10) 2.4 0.2 1.4 0.8 0
08-02-2021 10.5 (14:10) 4.3 (00:00) 7.4 11.39 (18:10) 6.67 (18:10) 2 0.2 0 1.2 0.6
07-02-2021 6.1 (23:10) -0.3 (00:00) 2.9 9.72 (00:30) 6.39 (00:30) 1.4 0 0 1 0.4
06-02-2021 4.9 (00:00) 0.5 (00:00) 2.7 11.67 (22:40) 7.5 (22:40) 38.8 24.8 6.4 5.4 2.2
05-02-2021 5.5 (15:20) 4.1 (00:00) 4.8 5.83 (23:10) 3.33 (23:10) 25 0.4 4.4 1.6 18.6
04-02-2021 9.9 (00:00) 4.5 (00:00) 7.2 12.22 (00:30) 6.94 (00:30) 0.6 0 0 0.4 0.2
03-02-2021 13.7 (16:00) 6.4 (00:00) 10 22.5 (00:40) 15 (02:10) 0.8 0.4 0.4 0 0

Gráficas

Temp. máximas Temp. mínimas Temp. medias Precipitaciones Rachas de viento máximas Velocidades máximas media en intervalos de 10 minutos

Datos horarios

Fecha y hora oficial Temperatura (ºC) Velocidad del viento (km/h) Dirección del viento Racha (km/h) Dirección de racha Precipitación (mm) Presión (hPa) Tendencia (hPa) Humedad (%)
2021-03-04 23:00:00 8.3 5 Norte 8 Norte 0 -- -- 64
2021-03-04 22:00:00 8.6 4 Norte 9 Nordeste 0 -- -- 53
2021-03-04 21:00:00 9.1 4 Noroeste 9 Noroeste 0 -- -- 61
2021-03-04 20:00:00 9.4 3 Norte 9 Nordeste 0 -- -- 64
2021-03-04 19:00:00 10.2 3 Nordeste 12 Norte 0 -- -- 67
2021-03-04 18:00:00 11.1 8 Nordeste 23 Nordeste 0 -- -- 69
2021-03-04 17:00:00 12.8 11 Nordeste 19 Nordeste 0 -- -- 61
2021-03-04 16:00:00 13.4 10 Nordeste 19 Nordeste 0 -- -- 53
2021-03-04 15:00:00 15 8 Este 14 Este 0 -- -- 49
2021-03-04 14:00:00 15.2 4 Nordeste 12 Sudeste 0 -- -- 46
2021-03-04 13:00:00 12.4 3 Nordeste 9 Este 0 -- -- 50
2021-03-04 12:00:00 13.6 4 Nordeste 9 Nordeste 0 -- -- 48
2021-03-04 11:00:00 13.1 4 Nordeste 9 Sudeste 0 -- -- 52
2021-03-04 10:00:00 11.5 3 Nordeste 5 Nordeste 0 -- -- 53
2021-03-04 09:00:00 9.4 2 Nordeste 9 Noroeste 0 -- -- 53
2021-03-04 08:00:00 8.7 6 Norte 11 Noroeste 0 -- -- 56
2021-03-04 07:00:00 8.8 4 Noroeste 9 Noroeste 0 -- -- 56
2021-03-04 06:00:00 8.7 3 Sur 10 Norte 0 -- -- 54
2021-03-04 05:00:00 8.1 2 Sudoeste 8 Norte 0 -- -- 56
2021-03-04 04:00:00 7.8 3 Noroeste 8 Noroeste 0 -- -- 61
2021-03-04 03:00:00 8 4 Norte 9 Noroeste 0 -- -- 65
2021-03-04 02:00:00 7.9 7 Norte 9 Norte 0 -- -- 68
2021-03-04 01:00:00 8.1 5 Norte 9 Norte 0 -- -- 71
2021-03-04 00:00:00 8.2 4 Norte 7 Noroeste 0 -- -- 71
2021-03-03 23:00:00 8.5 2 Sudoeste 10 Noroeste 0 -- -- 82
2021-03-03 22:00:00 8.5 6 Norte 10 Noroeste 0 -- -- 83
2021-03-03 21:00:00 8.5 2 Oeste 6 Noroeste 0 -- -- 72
2021-03-03 20:00:00 8.7 3 Oeste 8 Norte 0 -- -- 70
2021-03-03 19:00:00 9.8 4 Sudoeste 15 Nordeste 0 -- -- 66
2021-03-03 18:00:00 10.4 11 Nordeste 21 Nordeste 0 -- -- 60
2021-03-03 17:00:00 11.6 8 Norte 26 Nordeste 0 -- -- 50
2021-03-03 16:00:00 11.6 10 Norte 28 Este 0 -- -- 56
2021-03-03 15:00:00 12.5 12 Nordeste 22 Nordeste 0 -- -- 56
2021-03-03 14:00:00 13.4 5 Este 13 Sur 0 -- -- 56
2021-03-03 13:00:00 12.8 7 Nordeste 18 Nordeste 0 -- -- 53
2021-03-03 12:00:00 12.5 3 Este 8 Sur 0 -- -- 64
2021-03-03 11:00:00 10.8 4 Este 12 Nordeste 0 -- -- 63
2021-03-03 10:00:00 9.6 6 Nordeste 9 Nordeste 0 -- -- 70
2021-03-03 09:00:00 7.7 2 Sudeste 10 Noroeste 0 -- -- 74
2021-03-03 08:00:00 6.8 3 Norte 9 Noroeste 0 -- -- 77
2021-03-03 07:00:00 6.2 4 Norte 8 Norte 0 -- -- 85
2021-03-03 06:00:00 6.3 5 Norte 11 Nordeste 0 -- -- 86
2021-03-03 05:00:00 5.6 5 Norte 10 Sudoeste 0 -- -- 95
2021-03-03 04:00:00 5.8 4 Sudoeste 7 Sudoeste 0 -- -- 99
2021-03-03 03:00:00 5.8 4 Sudoeste 7 Norte 0 -- -- 98
2021-03-03 02:00:00 6 2 Nordeste 6 Norte 0 -- -- 99
2021-03-03 01:00:00 6.1 4 Sur 6 Sur 0 -- -- 99
2021-03-03 00:00:00 6.6 2 Sur 7 Sudeste 0 -- -- 99
2021-03-02 23:00:00 6.7 4 Sudoeste 9 Sur 0 -- -- 99
2021-03-02 22:00:00 6.9 2 Sudeste 8 Sudoeste 0 -- -- 99
2021-03-02 21:00:00 7.3 4 Sur 7 Sudeste 0 -- -- 98
2021-03-02 20:00:00 7.9 2 Este 8 Sudoeste 0 -- -- 96
2021-03-02 19:00:00 9.1 3 Noroeste 14 Norte 0 -- -- 81
2021-03-02 18:00:00 10.1 4 Este 10 Nordeste 0 -- -- 72
2021-03-02 17:00:00 10.6 5 Nordeste 12 Nordeste 0 -- -- 70
2021-03-02 16:00:00 10.2 4 Nordeste 15 Nordeste 0 -- -- 72
2021-03-02 15:00:00 9.9 8 Nordeste 17 Norte 0 -- -- 74
2021-03-02 14:00:00 8.9 9 Nordeste 17 Nordeste 0 -- -- 78
2021-03-02 13:00:00 8.2 6 Sudeste 33 Este 0 -- -- 79
2021-03-02 12:00:00 8.3 8 Nordeste 26 Sudeste 0 -- -- 77
2021-03-02 11:00:00 8.8 10 Nordeste 22 Norte 0 -- -- 77
2021-03-02 10:00:00 8.9 6 Nordeste 22 Este 0 -- -- 74
2021-03-02 09:00:00 7.9 8 Nordeste 24 Este 0 -- -- 77
2021-03-02 08:00:00 7.7 5 Norte 26 Sudeste 0 -- -- 77
2021-03-02 07:00:00 7.7 8 Nordeste 24 Sudeste 0 -- -- 77
2021-03-02 06:00:00 7.6 5 Este 21 Sudeste 0 -- -- 79
2021-03-02 05:00:00 7.5 5 Sudeste 21 Sudeste 0 -- -- 80
2021-03-02 04:00:00 7.6 8 Nordeste 22 Sudeste 0 -- -- 80
2021-03-02 03:00:00 7.7 12 Sudeste 33 Sudeste 0 -- -- 77
2021-03-02 02:00:00 8.4 23 Sur 35 Sur 0 -- -- 73
2021-03-02 01:00:00 7.8 11 Nordeste 21 Norte 0 -- -- 77
2021-03-02 00:00:00 7.7 11 Nordeste 22 Nordeste 0 -- -- 80
2021-03-01 23:00:00 8 13 Nordeste 36 Sudeste 0 -- -- 77
2021-03-01 22:00:00 8.5 7 Este 51 Sur 0 -- -- 72
2021-03-01 21:00:00 9 23 Sur 46 Sur 0 -- -- 70
2021-03-01 20:00:00 9.1 12 Sur 31 Sudoeste 0.2 -- -- 69
2021-03-01 19:00:00 9.5 6 Este 17 Este 0 -- -- 67
2021-03-01 18:00:00 10.4 6 Este 23 Sudeste 0 -- -- 64
2021-03-01 17:00:00 11.6 11 Sudeste 29 Este 0 -- -- 61
2021-03-01 16:00:00 12.1 15 Sudeste 31 Sudeste 0 -- -- 60
2021-03-01 15:00:00 12.6 9 Este 31 Nordeste 0 -- -- 60
2021-03-01 14:00:00 11.7 12 Este 31 Sudeste 0 -- -- 63
2021-03-01 13:00:00 11.2 8 Este 22 Sudeste 0 -- -- 64
2021-03-01 12:00:00 10 9 Nordeste 28 Nordeste 0 -- -- 71
2021-03-01 11:00:00 8.7 12 Este 27 Sudeste 0 -- -- 70
2021-03-01 10:00:00 6.7 13 Nordeste 25 Este 0 -- -- 81
2021-03-01 09:00:00 5.5 8 Nordeste 28 Sur 0 -- -- 84
2021-03-01 08:00:00 4.9 9 Nordeste 21 Nordeste 0 -- -- 86
2021-03-01 07:00:00 5.7 13 Nordeste 66 Sudeste 0.2 -- -- 82
2021-03-01 06:00:00 5.9 25 Sudeste 48 Sudeste 0 -- -- 80
2021-03-01 05:00:00 5.8 11 Este 32 Sudeste 0 -- -- 84
2021-03-01 04:00:00 5.5 8 Nordeste 19 Nordeste 0 -- -- 79
2021-03-01 03:00:00 5.1 12 Nordeste 19 Nordeste 0 -- -- 78
2021-03-01 02:00:00 5.5 7 Norte 14 Norte 0 -- -- 69
2021-03-01 01:00:00 4.6 8 Nordeste 15 Nordeste 0 -- -- 81
2021-03-01 00:00:00 4.2 7 Nordeste 17 Nordeste 0 -- -- 86
2021-02-28 23:00:00 3.5 4 Sudoeste 11 Este 0 -- -- 99
2021-02-28 22:00:00 3.9 3 Nordeste 14 Nordeste 0 -- -- 99
2021-02-28 21:00:00 4.2 8 Nordeste 15 Nordeste 0 -- -- 98
2021-02-28 20:00:00 4.4 8 Nordeste 14 Nordeste 0 -- -- 94
2021-02-28 19:00:00 4.7 0 Calma 11 Nordeste 0 -- -- 96
2021-02-28 18:00:00 5.3 5 Nordeste 9 Nordeste 0 -- -- 91
2021-02-28 17:00:00 7.3 3 Este 13 Nordeste 0 -- -- 83
2021-02-28 16:00:00 6.7 7 Nordeste 22 Nordeste 0 -- -- 79
2021-02-28 15:00:00 5.8 11 Nordeste 21 Nordeste 0 -- -- 83
2021-02-28 14:00:00 7.3 4 Nordeste 15 Nordeste 0 -- -- 75
2021-02-28 13:00:00 6.5 5 Nordeste 13 Este 0 -- -- 78
2021-02-28 12:00:00 4.6 6 Nordeste 14 Nordeste 0 -- -- 80
2021-02-28 11:00:00 3.2 7 Nordeste 18 Nordeste 0 -- -- 86
2021-02-28 10:00:00 3.2 9 Nordeste 15 Nordeste 0 -- -- 87
2021-02-28 09:00:00 1.9 6 Nordeste 14 Norte 0 -- -- 94
2021-02-28 08:00:00 0.9 5 Norte 13 Noroeste 0 -- -- 91
2021-02-28 07:00:00 -0.3 4 Norte 12 Nordeste 0 -- -- 97
2021-02-28 06:00:00 2.6 4 Sudoeste 7 Nordeste 0 -- -- 36
2021-02-28 05:00:00 3.5 5 Sudoeste 11 Sudoeste 0 -- -- 55
2021-02-28 04:00:00 1.9 5 Nordeste 10 Norte 0 -- -- 86
2021-02-28 03:00:00 1.6 5 Norte 9 Norte 0 -- -- 90
2021-02-28 02:00:00 0.6 3 Sudoeste 8 Sudoeste 0 -- -- 98
2021-02-28 01:00:00 1.1 2 Noroeste 12 Sudoeste 0 -- -- 96
2021-02-28 00:00:00 2.3 4 Nordeste 15 Norte 0 -- -- 84
2021-02-27 23:00:00 1.9 5 Norte 9 Norte 0 -- -- 100
2021-02-27 22:00:00 2.3 4 Norte 7 Norte 0 -- -- 100
2021-02-27 21:00:00 2.7 2 Sudoeste 7 Este 0 -- -- 97
2021-02-27 20:00:00 3.3 5 Norte 6 Nordeste 0 -- -- 85
2021-02-27 19:00:00 3.6 5 Sudoeste 8 Sudoeste 0 -- -- 98
2021-02-27 18:00:00 5.3 4 Sudeste 9 Sudoeste 0 -- -- 95
2021-02-27 17:00:00 5.7 3 Sur 9 Sur 0 -- -- 97
2021-02-27 16:00:00 6.4 6 Sur 9 Sur 0 -- -- 95
2021-02-27 15:00:00 6.8 4 Nordeste 10 Este 0 -- -- 92
2021-02-27 14:00:00 6.8 8 Nordeste 13 Nordeste 0 -- -- 95
2021-02-27 13:00:00 6.6 9 Nordeste 19 Nordeste 0 -- -- 97
2021-02-27 12:00:00 6.8 10 Nordeste 16 Nordeste 0 -- -- 96
2021-02-27 11:00:00 5.9 9 Nordeste 13 Nordeste 0 -- -- 98
2021-02-27 10:00:00 5.1 9 Nordeste 15 Sudeste 0 -- -- 98
2021-02-27 09:00:00 4.9 8 Nordeste 18 Nordeste 0 -- -- 100
2021-02-27 08:00:00 4.6 14 Nordeste 20 Nordeste 0 -- -- 100
2021-02-27 07:00:00 4.7 12 Nordeste 22 Nordeste 0 -- -- 100
2021-02-27 06:00:00 4.9 9 Nordeste 15 Este 0 -- -- 100
2021-02-27 05:00:00 5 8 Nordeste 15 Nordeste 0 -- -- 100
2021-02-27 04:00:00 5.1 10 Nordeste 15 Nordeste 0 -- -- 100
2021-02-27 03:00:00 5.1 8 Nordeste 10 Nordeste 0 -- -- 100
2021-02-27 02:00:00 5.2 7 Nordeste 13 Nordeste 0 -- -- 100
2021-02-27 01:00:00 5.3 9 Nordeste 12 Nordeste 0 -- -- 100
2021-02-27 00:00:00 5.5 7 Nordeste 13 Nordeste 0 -- -- 100
2021-02-26 23:00:00 5.8 5 Nordeste 15 Nordeste 0 -- -- 100
2021-02-26 22:00:00 5.8 9 Nordeste 17 Nordeste 0 -- -- 100
2021-02-26 21:00:00 5.9 11 Nordeste 18 Nordeste 0 -- -- 100
2021-02-26 20:00:00 6 8 Nordeste 16 Este 0 -- -- 100
2021-02-26 19:00:00 6.1 6 Nordeste 16 Nordeste 0 -- -- 100
2021-02-26 18:00:00 6.2 10 Nordeste 16 Este 0 -- -- 100
2021-02-26 17:00:00 6.5 5 Nordeste 12 Este 0 -- -- 100
2021-02-26 16:00:00 6.4 7 Nordeste 13 Nordeste 0 -- -- 100
2021-02-26 15:00:00 6.5 7 Nordeste 13 Nordeste 0 -- -- 100
2021-02-26 14:00:00 6.4 7 Nordeste 13 Nordeste 0 -- -- 100
2021-02-26 13:00:00 6.3 7 Nordeste 17 Nordeste 0 -- -- 100
2021-02-26 12:00:00 6.5 11 Nordeste 17 Nordeste 0 -- -- 100
2021-02-26 11:00:00 6.3 12 Nordeste 17 Nordeste 0 -- -- 100
2021-02-26 10:00:00 6 12 Nordeste 18 Nordeste 0 -- -- 100
2021-02-26 09:00:00 5.9 8 Nordeste 12 Nordeste 0.2 -- -- 100
2021-02-26 08:00:00 5.9 6 Nordeste 9 Nordeste 0 -- -- 100
2021-02-26 07:00:00 5.9 4 Nordeste 8 Nordeste 0 -- -- 100
2021-02-26 06:00:00 6.1 2 Este 9 Nordeste 0 -- -- 100
2021-02-26 05:00:00 6.1 6 Nordeste 9 Nordeste 0 -- -- 100
2021-02-26 04:00:00 6.1 3 Nordeste 7 Este 0 -- -- 100
2021-02-26 03:00:00 6.2 2 Nordeste 6 Nordeste 0 -- -- 100
2021-02-26 02:00:00 6.2 3 Nordeste 8 Nordeste 0 -- -- 100
2021-02-26 01:00:00 6.2 5 Nordeste 7 Nordeste 0.2 -- -- 100
2021-02-26 00:00:00 6.2 3 Nordeste 5 Nordeste 0 -- -- 100
2021-02-25 23:00:00 6.3 2 Sudeste 5 Sur 0.4 -- -- 100
2021-02-25 22:00:00 6.3 3 Sudeste 5 Sudeste 0.4 -- -- 100
2021-02-25 21:00:00 6.2 0 Calma 5 Sudoeste 0.2 -- -- 99
2021-02-25 20:00:00 6.2 4 Sur 5 Sudeste 0 -- -- 99
2021-02-25 19:00:00 6.3 2 Sudeste 11 Norte 0 -- -- 99
2021-02-25 18:00:00 6.3 5 Nordeste 15 Nordeste 0 -- -- 99
2021-02-25 17:00:00 6.5 6 Nordeste 15 Nordeste 0 -- -- 99
2021-02-25 16:00:00 6.3 8 Nordeste 17 Nordeste 0 -- -- 98
2021-02-25 15:00:00 7.4 5 Nordeste 14 Nordeste 0 -- -- 94
2021-02-25 14:00:00 8.8 3 Este 12 Nordeste 0 -- -- 87
2021-02-25 13:00:00 7.8 4 Nordeste 9 Nordeste 0 -- -- 90
2021-02-25 12:00:00 6.9 3 Sudeste 8 Sur 0 -- -- 91
2021-02-25 11:00:00 6.8 0 Calma 6 Sur 0 -- -- 90
2021-02-25 10:00:00 6.4 4 Sur 8 Sur 0 -- -- 90
2021-02-25 09:00:00 6.3 4 Sudeste 10 Sudoeste 0 -- -- 91
2021-02-25 08:00:00 6.1 3 Sur 5 Sudoeste 0 -- -- 90
2021-02-25 07:00:00 6.2 4 Sur 7 Sur 0 -- -- 91
2021-02-25 06:00:00 6.4 5 Sur 12 Sur 0 -- -- 90
2021-02-25 05:00:00 6.9 7 Sudoeste 14 Este 0 -- -- 89
2021-02-25 04:00:00 9.5 8 Nordeste 18 Nordeste 0 -- -- 66
2021-02-25 03:00:00 10.8 6 Nordeste 31 Sudoeste 0 -- -- 56
2021-02-25 02:00:00 12.2 22 Sudoeste 40 Oeste 0 -- -- 46
2021-02-25 01:00:00 10.5 5 Norte 14 Este 0 -- -- 62
2021-02-25 00:00:00 10.6 7 Norte 17 Nordeste 0 -- -- 61
2021-02-24 23:00:00 11.1 6 Este 15 Nordeste 0 -- -- 59
2021-02-24 22:00:00 12 8 Norte 28 Sur 0 -- -- 51
2021-02-24 21:00:00 13 21 Sudoeste 53 Sudoeste 0 -- -- 44
2021-02-24 20:00:00 13.8 31 Sudoeste 64 Sudoeste 0 -- -- 39
2021-02-24 19:00:00 13.7 34 Sudoeste 57 Sudoeste 0 -- -- 41
2021-02-24 18:00:00 14.2 20 Sudoeste 39 Sudoeste 0 -- -- 39
2021-02-24 17:00:00 16.7 15 Sur 31 Sur 0 -- -- 36
2021-02-24 16:00:00 17.1 12 Sur 36 Sudoeste 0 -- -- 33
2021-02-24 15:00:00 16.8 12 Sur 46 Sudoeste 0 -- -- 30
2021-02-24 14:00:00 15 8 Nordeste 27 Nordeste 0 -- -- 36
2021-02-24 13:00:00 14.5 12 Nordeste 29 Nordeste 0 -- -- 29
2021-02-24 12:00:00 14.8 8 Nordeste 21 Sudeste 0 -- -- 27
2021-02-24 11:00:00 13.5 10 Sudeste 26 Sudeste 0 -- -- 28
2021-02-24 10:00:00 11.2 9 Nordeste 22 Noroeste 0 -- -- 35
2021-02-24 09:00:00 8.9 13 Nordeste 24 Nordeste 0 -- -- 41
2021-02-24 08:00:00 7.3 10 Norte 19 Norte 0 -- -- 52
2021-02-24 07:00:00 6.6 11 Nordeste 18 Nordeste 0 -- -- 58
2021-02-24 06:00:00 6.6 10 Norte 17 Nordeste 0 -- -- 58
2021-02-24 05:00:00 6.9 9 Nordeste 18 Nordeste 0 -- -- 58
2021-02-24 04:00:00 6.9 12 Norte 17 Nordeste 0 -- -- 58
2021-02-24 03:00:00 7.1 10 Norte 17 Nordeste 0 -- -- 57
2021-02-24 02:00:00 7.1 10 Nordeste 16 Nordeste 0 -- -- 56
2021-02-24 01:00:00 7.5 12 Nordeste 17 Nordeste 0 -- -- 52
2021-02-24 00:00:00 8 11 Nordeste 18 Norte 0 -- -- 48
2021-02-23 23:00:00 8.4 11 Nordeste 19 Nordeste 0 -- -- 41
2021-02-23 22:00:00 8.1 9 Nordeste 15 Nordeste 0 -- -- 35
2021-02-23 21:00:00 8.2 11 Nordeste 17 Nordeste 0 -- -- 32
2021-02-23 20:00:00 9 8 Nordeste 17 Nordeste 0 -- -- 31
2021-02-23 19:00:00 10.6 7 Norte 14 Nordeste 0 -- -- 28
2021-02-23 18:00:00 12.9 6 Nordeste 17 Nordeste 0 -- -- 24
2021-02-23 17:00:00 14.6 7 Este 24 Este 0 -- -- 22
2021-02-23 16:00:00 15 5 Nordeste 19 Nordeste 0 -- -- 23
2021-02-23 15:00:00 14.1 8 Nordeste 17 Nordeste 0 -- -- 25
2021-02-23 14:00:00 14.6 6 Este 18 Nordeste 0 -- -- 26
2021-02-23 13:00:00 13.8 7 Este 21 Sudeste 0 -- -- 29
2021-02-23 12:00:00 12.4 9 Sudeste 20 Este 0 -- -- 35
2021-02-23 11:00:00 10.6 6 Nordeste 16 Nordeste 0 -- -- 36
2021-02-23 10:00:00 8.4 5 Nordeste 17 Este 0 -- -- 35
2021-02-23 09:00:00 5.8 10 Nordeste 21 Nordeste 0 -- -- 39
2021-02-23 08:00:00 5.5 14 Nordeste 21 Nordeste 0 -- -- 39
2021-02-23 07:00:00 5.3 10 Nordeste 16 Norte 0 -- -- 41
2021-02-23 06:00:00 5 7 Norte 18 Nordeste 0 -- -- 46
2021-02-23 05:00:00 4.9 8 Nordeste 14 Este 0 -- -- 50
2021-02-23 04:00:00 4.4 9 Norte 13 Nordeste 0 -- -- 53
2021-02-23 03:00:00 4.6 6 Norte 17 Nordeste 0 -- -- 58
2021-02-23 02:00:00 4.5 12 Nordeste 24 Nordeste 0 -- -- 63
2021-02-23 01:00:00 4.5 9 Norte 15 Norte 0 -- -- 67
2021-02-23 00:00:00 4.6 7 Norte 13 Norte 0 -- -- 69
2021-02-22 23:00:00 4.8 8 Nordeste 17 Nordeste 0 -- -- 71
2021-02-22 22:00:00 5.2 6 Nordeste 13 Norte 0 -- -- 70
2021-02-22 21:00:00 4.8 3 Nordeste 8 Norte 0 -- -- 72
2021-02-22 20:00:00 4.1 0 Calma 4 Oeste 0 -- -- 88
2021-02-22 19:00:00 4.7 3 Norte 5 Noroeste 0 -- -- 86
2021-02-22 18:00:00 8.1 4 Sudeste 10 Sur 0 -- -- 71
2021-02-22 17:00:00 8.6 7 Sur 12 Sudeste 0 -- -- 73
2021-02-22 16:00:00 9.2 5 Sudeste 16 Sudeste 0 -- -- 70
2021-02-22 15:00:00 7.8 3 Nordeste 12 Este 0 -- -- 66
2021-02-22 14:00:00 7 6 Nordeste 12 Nordeste 0 -- -- 70
2021-02-22 13:00:00 6.9 5 Nordeste 14 Nordeste 0 -- -- 68
2021-02-22 12:00:00 6.7 7 Nordeste 23 Sudoeste 0 -- -- 77
2021-02-22 11:00:00 4.5 17 Sudoeste 23 Sudoeste 0 -- -- 76
2021-02-22 10:00:00 3.1 13 Sudoeste 28 Sudoeste 0 -- -- 84
2021-02-22 09:00:00 2.4 17 Oeste 31 Oeste 0.2 -- -- 88
2021-02-22 08:00:00 2.7 22 Oeste 44 Sudoeste 0 -- -- 83
2021-02-22 07:00:00 2.6 22 Oeste 36 Oeste 0 -- -- 88
2021-02-22 06:00:00 2.6 21 Oeste 41 Oeste 0.2 -- -- 86
2021-02-22 05:00:00 2.9 27 Sudoeste 42 Oeste 0.2 -- -- 87
2021-02-22 04:00:00 2.6 22 Sudoeste 39 Sudoeste 0.4 -- -- 89
2021-02-22 03:00:00 2.6 20 Sudoeste 36 Sudoeste 0.4 -- -- 89
2021-02-22 02:00:00 2.3 21 Oeste 37 Sudoeste 0.2 -- -- 89
2021-02-22 01:00:00 1.9 23 Oeste 38 Oeste 1.2 -- -- 89
2021-02-22 00:00:00 2.1 21 Oeste 32 Sudoeste 1.4 -- -- 90
2021-02-21 23:00:00 2.4 15 Oeste 32 Oeste 0.8 -- -- 90
2021-02-21 22:00:00 2.1 21 Oeste 34 Oeste 1.2 -- -- 90
2021-02-21 21:00:00 1.7 27 Oeste 36 Oeste 2.8 -- -- 92
2021-02-21 20:00:00 1.6 23 Oeste 31 Sudoeste 4.8 -- -- 93
2021-02-21 19:00:00 2.4 17 Oeste 27 Oeste 2.6 -- -- 91
2021-02-21 18:00:00 2.9 13 Oeste 21 Oeste 3.6 -- -- 92
2021-02-21 17:00:00 4.8 5 Este 22 Nordeste 2.4 -- -- 98
2021-02-21 16:00:00 6.3 12 Nordeste 18 Nordeste 1 -- -- 96
2021-02-21 15:00:00 8.1 5 Norte 24 Sudeste 0.4 -- -- 88
2021-02-21 14:00:00 10.5 9 Este 23 Sudeste 0 -- -- 63
2021-02-21 13:00:00 9.9 9 Sudeste 35 Sudeste 0.2 -- -- 66
2021-02-21 12:00:00 10.1 16 Sudeste 35 Este 0 -- -- 56
2021-02-21 11:00:00 12.2 6 Sudoeste 66 Sur 0 -- -- 46
2021-02-21 10:00:00 12.3 28 Sudoeste 78 Sudoeste 0 -- -- 40
2021-02-21 09:00:00 11.9 23 Sur 47 Sur 0 -- -- 38
2021-02-21 08:00:00 11.2 10 Este 71 Sudoeste 0 -- -- 43
2021-02-21 07:00:00 12.5 40 Sudoeste 72 Sur 0 -- -- 32
2021-02-21 06:00:00 10.1 12 Este 36 Sudeste 0 -- -- 46
2021-02-21 05:00:00 9 8 Nordeste 33 Sudoeste 0 -- -- 67
2021-02-21 04:00:00 10.7 12 Sur 50 Sudoeste 0 -- -- 60
2021-02-21 03:00:00 9.3 8 Sudoeste 24 Sur 0 -- -- 49
2021-02-21 02:00:00 10.4 12 Este 53 Sudoeste 0 -- -- 36
2021-02-21 01:00:00 11.1 15 Sur 45 Sudoeste 0 -- -- 53
2021-02-21 00:00:00 11.6 23 Sudoeste 49 Sur 0 -- -- 41
2021-02-20 23:00:00 12.1 18 Sudeste 40 Sudeste 0 -- -- 37
2021-02-20 22:00:00 12.1 20 Sudeste 45 Sur 0 -- -- 38
2021-02-20 21:00:00 12.7 30 Sur 59 Sur 0 -- -- 38
2021-02-20 20:00:00 12.7 24 Sur 50 Sur 0 -- -- 38
2021-02-20 19:00:00 12.8 16 Sudoeste 57 Sudoeste 0 -- -- 38
2021-02-20 18:00:00 12.4 26 Sudoeste 67 Sudoeste 0 -- -- 44
2021-02-20 17:00:00 13.6 36 Sudoeste 64 Sudoeste 0 -- -- 45
2021-02-20 16:00:00 14.5 43 Sur 84 Sur 0 -- -- 41
2021-02-20 15:00:00 14.2 46 Sur 95 Sur 0 -- -- 32
2021-02-20 14:00:00 14.7 32 Sur 87 Sur 0 -- -- 32
2021-02-20 13:00:00 13.4 44 Sur 102 Sur 0 -- -- 28
2021-02-20 12:00:00 14.1 50 Sur 105 Sur 0 -- -- 26
2021-02-20 11:00:00 13.4 40 Sur 87 Sur 0 -- -- 28
2021-02-20 10:00:00 12.2 35 Sur 91 Sudoeste 0 -- -- 30
2021-02-20 09:00:00 12 41 Sudoeste 109 Sudoeste 0 -- -- 27
2021-02-20 08:00:00 12.3 48 Sudoeste 118 Sudoeste 0 -- -- 27
2021-02-20 07:00:00 12.3 58 Sudoeste 106 Sudoeste 0 -- -- 28
2021-02-20 06:00:00 12.2 45 Sudoeste 98 Oeste 0 -- -- 32
2021-02-20 05:00:00 12.4 51 Sudoeste 101 Sur 0 -- -- 32
2021-02-20 04:00:00 11.9 45 Sudoeste 94 Sudeste 0 -- -- 40
2021-02-20 03:00:00 11.6 32 Sudoeste 77 Oeste 0 -- -- 49
2021-02-20 02:00:00 11.2 41 Sudoeste 100 Sudoeste 0 -- -- 52
2021-02-20 01:00:00 11 51 Sudoeste 91 Sudoeste 0 -- -- 53
2021-02-20 00:00:00 11.1 18 Sudoeste 80 Sudoeste 0 -- -- 50
2021-02-19 23:00:00 11 37 Sudoeste 72 Sudoeste 0 -- -- 54
2021-02-19 22:00:00 11.2 43 Sudoeste 91 Oeste 0 -- -- 50
2021-02-19 21:00:00 12.7 23 Sudoeste 80 Sudoeste 0 -- -- 35
2021-02-19 20:00:00 12.5 38 Oeste 96 Sudoeste 0 -- -- 36
2021-02-19 19:00:00 12.3 55 Sudoeste 108 Oeste 0.2 -- -- 39
2021-02-19 18:00:00 12.2 57 Sudoeste 102 Oeste 0 -- -- 37
2021-02-19 17:00:00 12.1 45 Sudoeste 79 Sudoeste 0.2 -- -- 40
2021-02-19 16:00:00 11.6 21 Sur 67 Sur 0 -- -- 40
2021-02-19 15:00:00 11.4 17 Sur 57 Sur 0 -- -- 45
2021-02-19 14:00:00 11.6 13 Nordeste 41 Sudeste 0 -- -- 49
2021-02-19 13:00:00 12.3 15 Noroeste 36 Oeste 0 -- -- 46
2021-02-19 12:00:00 12.5 9 Sur 30 Sudeste 0 -- -- 53
2021-02-19 11:00:00 11.6 6 Nordeste 29 Sudoeste 0 -- -- 55
2021-02-19 10:00:00 10.4 6 Nordeste 18 Sudeste 0 -- -- 57
2021-02-19 09:00:00 10 6 Sudoeste 57 Sur 0 -- -- 57
2021-02-19 08:00:00 9 4 Nordeste 18 Norte 0 -- -- 54
2021-02-19 07:00:00 9.3 15 Nordeste 35 Sudoeste 0 -- -- 53
2021-02-19 06:00:00 9.2 7 Este 36 Sudoeste 0 -- -- 51
2021-02-19 05:00:00 8.4 12 Norte 24 Norte 0 -- -- 57
2021-02-19 04:00:00 8 13 Norte 24 Nordeste 0 -- -- 55
2021-02-19 03:00:00 9 12 Nordeste 45 Sudoeste 0 -- -- 55
2021-02-19 02:00:00 8.1 5 Oeste 24 Sudoeste 0 -- -- 58
2021-02-19 01:00:00 7.3 7 Oeste 17 Noroeste 0 -- -- 66
2021-02-19 00:00:00 6.4 8 Norte 19 Norte 0 -- -- 70
2021-02-18 23:00:00 5.3 5 Norte 18 Nordeste 0 -- -- 84
2021-02-18 22:00:00 3.6 3 Noroeste 13 Sur 0 -- -- 95
2021-02-18 21:00:00 3.9 4 Noroeste 20 Nordeste 0 -- -- 96
2021-02-18 20:00:00 4.2 4 Nordeste 8 Nordeste 0 -- -- 97
2021-02-18 19:00:00 4.5 3 Sur 10 Nordeste 0 -- -- 97
2021-02-18 18:00:00 4.7 4 Sudoeste 10 Nordeste 0 -- -- 98
2021-02-18 17:00:00 4.9 7 Nordeste 16 Nordeste 0.6 -- -- 99
2021-02-18 16:00:00 5.3 10 Norte 14 Nordeste 0.2 -- -- 98
2021-02-18 15:00:00 5.9 7 Nordeste 14 Nordeste 2 -- -- 97
2021-02-18 14:00:00 6.6 3 Este 17 Nordeste 0.6 -- -- 97
2021-02-18 13:00:00 6.6 10 Nordeste 19 Norte 0 -- -- 97
2021-02-18 12:00:00 8.5 4 Sudeste 28 Nordeste 0 -- -- 89
2021-02-18 11:00:00 10.8 18 Nordeste 31 Nordeste 0 -- -- 62
2021-02-18 10:00:00 9.2 10 Este 33 Sudeste 0 -- -- 71
2021-02-18 09:00:00 10.9 21 Sudoeste 48 Oeste 0 -- -- 47
2021-02-18 08:00:00 10.9 23 Sudoeste 59 Sur 0 -- -- 52
2021-02-18 07:00:00 11.3 23 Oeste 74 Sudoeste 0 -- -- 47
2021-02-18 06:00:00 11.5 36 Sudoeste 84 Sudoeste 0 -- -- 41
2021-02-18 05:00:00 11.6 41 Sudoeste 87 Sur 0 -- -- 41
2021-02-18 04:00:00 11.8 39 Sudoeste 72 Sudoeste 0 -- -- 46
2021-02-18 03:00:00 12.2 36 Sudoeste 62 Sudoeste 0 -- -- 47
2021-02-18 02:00:00 12.1 21 Sudoeste 53 Sudoeste 0 -- -- 48
2021-02-18 01:00:00 12.3 16 Sudoeste 45 Sur 0 -- -- 50
2021-02-18 00:00:00 11.4 6 Oeste 13 Norte 0 -- -- 57
2021-02-17 23:00:00 12 17 Sudoeste 52 Sudeste 0 -- -- 57
2021-02-17 22:00:00 12 9 Sur 71 Sudoeste 0 -- -- 54
2021-02-17 21:00:00 11.6 21 Sur 49 Sur 0 -- -- 55
2021-02-17 20:00:00 10.8 9 Nordeste 37 Sur 0 -- -- 61
2021-02-17 19:00:00 12 8 Sudoeste 40 Sudoeste 0 -- -- 52
2021-02-17 18:00:00 11.2 6 Nordeste 14 Nordeste 0 -- -- 51
2021-02-17 17:00:00 11.4 0 Calma 17 Sur 0 -- -- 52
2021-02-17 16:00:00 11.4 6 Oeste 10 Sudeste 0 -- -- 52
2021-02-17 15:00:00 11.9 5 Nordeste 15 Este 0 -- -- 48
2021-02-17 14:00:00 12.4 8 Este 18 Nordeste 0 -- -- 50
2021-02-17 13:00:00 12.1 7 Nordeste 14 Nordeste 0 -- -- 46
2021-02-17 12:00:00 11.8 6 Sur 13 Sur 0 -- -- 48
2021-02-17 11:00:00 10.4 7 Sur 13 Sur 0 -- -- 48
2021-02-17 10:00:00 8.4 2 Nordeste 8 Norte 0 -- -- 49
2021-02-17 09:00:00 6.6 7 Norte 16 Noroeste 0 -- -- 60
2021-02-17 08:00:00 6 5 Norte 13 Noroeste 0 -- -- 58
2021-02-17 07:00:00 6.1 6 Norte 13 Norte 0 -- -- 57
2021-02-17 06:00:00 6.1 9 Norte 13 Noroeste 0 -- -- 59
2021-02-17 05:00:00 6.7 5 Noroeste 11 Noroeste 0 -- -- 59
2021-02-17 04:00:00 6.9 7 Noroeste 13 Noroeste 0 -- -- 61
2021-02-17 03:00:00 6.8 8 Noroeste 12 Noroeste 0 -- -- 63
2021-02-17 02:00:00 6.4 7 Norte 12 Norte 0 -- -- 70
2021-02-17 01:00:00 6.8 3 Sur 11 Norte 0 -- -- 73
2021-02-17 00:00:00 6.6 4 Norte 10 Noroeste 0 -- -- 76
2021-02-16 23:00:00 6.8 3 Oeste 9 Noroeste 0 -- -- 80
2021-02-16 22:00:00 6.6 3 Noroeste 7 Norte 0 -- -- 83
2021-02-16 21:00:00 6.6 4 Sudoeste 8 Sudeste 0 -- -- 90
2021-02-16 20:00:00 6.8 0 Calma 8 Norte 0 -- -- 90
2021-02-16 19:00:00 7.2 4 Noroeste 8 Norte 0 -- -- 89
2021-02-16 18:00:00 8.1 4 Sur 9 Nordeste 0 -- -- 88
2021-02-16 17:00:00 8.7 2 Sudeste 7 Sudeste 0 -- -- 86
2021-02-16 16:00:00 8.2 0 Calma 9 Nordeste 0.2 -- -- 91
2021-02-16 15:00:00 8.4 5 Este 9 Sur 0 -- -- 87
2021-02-16 14:00:00 8.6 6 Sudeste 15 Sur 0 -- -- 84
2021-02-16 13:00:00 8.3 4 Sudoeste 15 Sudoeste 0 -- -- 82
2021-02-16 12:00:00 10.6 9 Nordeste 26 Norte 0 -- -- 56
2021-02-16 11:00:00 11.4 9 Este 40 Norte 0 -- -- 49
2021-02-16 10:00:00 11.2 17 Norte 45 Nordeste 0 -- -- 44
2021-02-16 09:00:00 11.1 16 Nordeste 34 Nordeste 0 -- -- 44
2021-02-16 08:00:00 11.4 9 Norte 65 Sur 0 -- -- 38
2021-02-16 07:00:00 11.3 21 Nordeste 41 Nordeste 0 -- -- 47
2021-02-16 06:00:00 11.5 10 Oeste 29 Oeste 0 -- -- 42
2021-02-16 05:00:00 11.1 8 Norte 16 Norte 0 -- -- 47
2021-02-16 04:00:00 11.5 9 Nordeste 41 Sur 0 -- -- 45
2021-02-16 03:00:00 13.5 23 Sur 49 Sur 0 -- -- 33
2021-02-16 02:00:00 13.8 30 Sur 48 Sur 0 -- -- 33
2021-02-16 01:00:00 14.7 21 Sudoeste 59 Sudoeste 0 -- -- 30
2021-02-16 00:00:00 16.4 38 Sudoeste 58 Sudoeste 0 -- -- 21
2021-02-15 23:00:00 16 15 Sudoeste 35 Sur 0 -- -- 22
2021-02-15 22:00:00 16.5 18 Sudoeste 65 Sudoeste 0 -- -- 20
2021-02-15 21:00:00 16.8 30 Sudoeste 54 Sudoeste 0 -- -- 17
2021-02-15 20:00:00 15.9 10 Sudoeste 43 Oeste 0 -- -- 22
2021-02-15 19:00:00 16.7 29 Oeste 54 Sudoeste 0 -- -- 16
2021-02-15 18:00:00 17 37 Sudoeste 73 Sudoeste 0 -- -- 16
2021-02-15 17:00:00 16.9 37 Sudoeste 69 Sudoeste 0 -- -- 16
2021-02-15 16:00:00 14.7 11 Nordeste 24 Nordeste 0 -- -- 33
2021-02-15 15:00:00 15.3 8 Nordeste 18 Este 0 -- -- 33
2021-02-15 14:00:00 15 5 Nordeste 20 Sudeste 0 -- -- 36
2021-02-15 13:00:00 13.6 5 Nordeste 16 Este 0 -- -- 41
2021-02-15 12:00:00 12.3 10 Nordeste 19 Nordeste 0 -- -- 42
2021-02-15 11:00:00 11.6 8 Nordeste 17 Nordeste 0 -- -- 40
2021-02-15 10:00:00 10.6 9 Nordeste 15 Nordeste 0 -- -- 42
2021-02-15 09:00:00 9.8 8 Norte 15 Nordeste 0 -- -- 41
2021-02-15 08:00:00 9.5 9 Norte 17 Norte 0 -- -- 43
2021-02-15 07:00:00 10 9 Nordeste 16 Norte 0 -- -- 43
2021-02-15 06:00:00 10 10 Norte 17 Nordeste 0 -- -- 48
2021-02-15 05:00:00 9.8 6 Nordeste 15 Norte 0 -- -- 53
2021-02-15 04:00:00 9.7 10 Norte 19 Nordeste 0 -- -- 55
2021-02-15 03:00:00 10.1 9 Nordeste 18 Nordeste 0 -- -- 55
2021-02-15 02:00:00 10.6 9 Nordeste 21 Este 0 -- -- 54
2021-02-15 01:00:00 9.9 8 Nordeste 18 Nordeste 0 -- -- 56
2021-02-15 00:00:00 10.3 10 Nordeste 17 Norte 0 -- -- 50
2021-02-14 23:00:00 10.6 5 Norte 18 Norte 0 -- -- 45
2021-02-14 22:00:00 10.1 9 Norte 14 Nordeste 0 -- -- 51
2021-02-14 21:00:00 10.5 7 Norte 13 Nordeste 0 -- -- 51
2021-02-14 20:00:00 10.9 8 Norte 13 Norte 0 -- -- 53
2021-02-14 19:00:00 11.9 9 Norte 15 Noroeste 0 -- -- 53
2021-02-14 18:00:00 13.3 5 Nordeste 12 Nordeste 0 -- -- 55
2021-02-14 17:00:00 13.7 2 Noroeste 10 Nordeste 0 -- -- 53
2021-02-14 16:00:00 13.8 3 Norte 8 Este 0 -- -- 51
2021-02-14 15:00:00 14.2 5 Nordeste 11 Nordeste 0 -- -- 52
2021-02-14 14:00:00 14.1 7 Nordeste 10 Nordeste 0 -- -- 49
2021-02-14 13:00:00 13.5 2 Este 8 Este 0 -- -- 50
2021-02-14 12:00:00 12.4 4 Nordeste 11 Nordeste 0 -- -- 49
2021-02-14 11:00:00 11.2 7 Nordeste 16 Nordeste 0 -- -- 57
2021-02-14 10:00:00 8.7 9 Nordeste 14 Nordeste 0 -- -- 61
2021-02-14 09:00:00 8.5 5 Norte 10 Norte 0 -- -- 58
2021-02-14 08:00:00 7.3 7 Norte 13 Norte 0 -- -- 65
2021-02-14 07:00:00 7.1 9 Norte 13 Norte 0 -- -- 67
2021-02-14 06:00:00 7.2 9 Norte 13 Norte 0 -- -- 68
2021-02-14 05:00:00 7.7 5 Norte 10 Norte 0 -- -- 68
2021-02-14 04:00:00 7.7 4 Sudoeste 13 Nordeste 0 -- -- 68
2021-02-14 03:00:00 7.6 7 Nordeste 14 Nordeste 0 -- -- 71
2021-02-14 02:00:00 8.2 7 Norte 9 Norte 0 -- -- 65
2021-02-14 01:00:00 8.8 5 Sudoeste 10 Noroeste 0 -- -- 65
2021-02-14 00:00:00 8.2 6 Norte 9 Noroeste 0 -- -- 70
2021-02-13 23:00:00 7.7 5 Norte 11 Norte 0 -- -- 76
2021-02-13 22:00:00 7.5 7 Norte 12 Norte 0 -- -- 82
2021-02-13 21:00:00 8.1 8 Norte 13 Noroeste 0 -- -- 79
2021-02-13 20:00:00 8.4 0 Calma 13 Noroeste 0 -- -- 83
2021-02-13 19:00:00 8.8 0 Calma 7 Sudoeste 0 -- -- 82
2021-02-13 18:00:00 9.8 4 Sudoeste 22 Oeste 0 -- -- 79
2021-02-13 17:00:00 10 10 Oeste 24 Oeste 0 -- -- 77
2021-02-13 16:00:00 10.6 14 Noroeste 32 Noroeste 0 -- -- 73
2021-02-13 15:00:00 10 6 Nordeste 13 Sur 0 -- -- 67
2021-02-13 14:00:00 9 6 Nordeste 13 Nordeste 0 -- -- 74
2021-02-13 13:00:00 7.2 5 Nordeste 24 Oeste 0 -- -- 74
2021-02-13 08:00:00 -- -- -- -- -- -- -- -- --
2021-02-13 07:00:00 6.1 7 Norte 11 Noroeste 0 -- -- 66
2021-02-13 06:00:00 6.1 4 Norte 9 Norte 0 -- -- 68
2021-02-13 05:00:00 5.8 4 Norte 10 Noroeste 0 -- -- 72
2021-02-13 04:00:00 5.6 5 Norte 9 Noroeste 0 -- -- 74
2021-02-13 03:00:00 6.1 4 Noroeste 10 Noroeste 0 -- -- 71
2021-02-13 02:00:00 6.3 0 Calma 8 Norte 0 -- -- 68
2021-02-13 01:00:00 6 0 Calma 10 Noroeste 0 -- -- 70
2021-02-13 00:00:00 5.8 5 Noroeste 9 Noroeste 0 -- -- 74
2021-02-12 23:00:00 5.9 3 Oeste 15 Sudoeste 0 -- -- 78
2021-02-12 22:00:00 6.3 11 Oeste 15 Oeste 0 -- -- 74
2021-02-12 21:00:00 6.1 3 Sudoeste 17 Oeste 0 -- -- 80
2021-02-12 20:00:00 6.1 4 Oeste 21 Oeste 0 -- -- 84
2021-02-12 19:00:00 7.1 14 Oeste 18 Oeste 0 -- -- 82
2021-02-12 18:00:00 7.6 8 Sudoeste 25 Oeste 0 -- -- 85
2021-02-12 17:00:00 7.5 12 Oeste 28 Oeste 0.2 -- -- 86
2021-02-12 16:00:00 7.3 14 Oeste 36 Sudoeste 0 -- -- 87
2021-02-12 15:00:00 7.5 23 Oeste 55 Sudoeste 0 -- -- 83
2021-02-12 14:00:00 7.2 27 Oeste 56 Sudoeste 0.2 -- -- 87
2021-02-12 13:00:00 6.8 41 Sudoeste 67 Sudoeste 0.6 -- -- 88
2021-02-12 12:00:00 6.8 36 Sudoeste 62 Sudoeste 0.4 -- -- 91
2021-02-12 11:00:00 6.7 27 Sudoeste 48 Sudoeste 1.2 -- -- 88
2021-02-12 10:00:00 6.2 25 Sudoeste 43 Sudoeste 1.4 -- -- 91
2021-02-12 09:00:00 6.6 23 Sudoeste 47 Sudoeste 1.8 -- -- 87
2021-02-12 08:00:00 6.8 20 Oeste 52 Oeste 3.6 -- -- 81
2021-02-12 07:00:00 8 19 Sudoeste 40 Sudoeste 0.4 -- -- 88
2021-02-12 06:00:00 8.2 8 Oeste 20 Oeste 0 -- -- 83
2021-02-12 05:00:00 8.1 11 Noroeste 26 Sudoeste 0.6 -- -- 86
2021-02-12 04:00:00 8.2 14 Oeste 22 Oeste 1.6 -- -- 90
2021-02-12 03:00:00 8.1 16 Oeste 27 Oeste 2.6 -- -- 91
2021-02-12 02:00:00 8.5 3 Norte 9 Sur 1 -- -- 91
2021-02-12 01:00:00 9.6 4 Norte 15 Norte 0.2 -- -- 82
2021-02-12 00:00:00 10.1 9 Norte 17 Norte 0 -- -- 77
2021-02-11 23:00:00 9.9 8 Norte 12 Norte 0 -- -- 80
2021-02-11 22:00:00 9.7 8 Norte 21 Nordeste 0 -- -- 82
2021-02-11 21:00:00 9.6 4 Nordeste 10 Nordeste 0 -- -- 77
2021-02-11 20:00:00 10.1 3 Norte 12 Noroeste 0 -- -- 73
2021-02-11 19:00:00 10.5 6 Noroeste 10 Norte 0 -- -- 71
2021-02-11 18:00:00 11 4 Norte 10 Este 0 -- -- 70
2021-02-11 17:00:00 12.3 6 Nordeste 10 Nordeste 0 -- -- 73
2021-02-11 16:00:00 12.6 4 Nordeste 7 Norte 0 -- -- 70
2021-02-11 15:00:00 12.7 3 Nordeste 13 Norte 0 -- -- 72
2021-02-11 14:00:00 11.8 3 Este 11 Este 0.2 -- -- 79
2021-02-11 13:00:00 10.6 5 Noroeste 9 Nordeste 0.6 -- -- 76
2021-02-11 12:00:00 11.2 3 Este 17 Nordeste 0 -- -- 69
2021-02-11 11:00:00 11 11 Nordeste 16 Nordeste 0 -- -- 66
2021-02-11 10:00:00 10.3 2 Nordeste 10 Norte 0 -- -- 66
2021-02-11 09:00:00 9.3 8 Noroeste 13 Norte 0 -- -- 69
2021-02-11 08:00:00 8.8 4 Norte 13 Nordeste 0 -- -- 68
2021-02-11 07:00:00 7.9 5 Norte 12 Norte 0 -- -- 69
2021-02-11 06:00:00 8.5 4 Sudoeste 12 Norte 0 -- -- 63
2021-02-11 05:00:00 8.1 3 Sudoeste 8 Norte 0 -- -- 61
2021-02-11 04:00:00 8.1 4 Norte 7 Norte 0 -- -- 57
2021-02-11 03:00:00 7.5 3 Norte 10 Norte 0 -- -- 56
2021-02-11 02:00:00 6.2 3 Oeste 10 Nordeste 0 -- -- 66
2021-02-11 01:00:00 5.5 7 Nordeste 10 Norte 0 -- -- 78
2021-02-11 00:00:00 4.7 2 Norte 6 Nordeste 0 -- -- 88
2021-02-10 23:00:00 4.3 4 Oeste 7 Sudoeste 0 -- -- 93
2021-02-10 22:00:00 4.5 3 Noroeste 9 Oeste 0 -- -- 95
2021-02-10 21:00:00 4.8 3 Este 5 Este 0 -- -- 95
2021-02-10 20:00:00 5.1 0 Calma 7 Sudeste 0 -- -- 92
2021-02-10 19:00:00 5.5 5 Sur 8 Sur 0 -- -- 91
2021-02-10 18:00:00 7 6 Sur 11 Sur 0 -- -- 80
2021-02-10 17:00:00 10.3 6 Sudeste 13 Sur 0 -- -- 65
2021-02-10 16:00:00 10.7 5 Sudeste 13 Sudeste 0 -- -- 58
2021-02-10 15:00:00 10.7 6 Sudeste 21 Sudoeste 0 -- -- 55
2021-02-10 14:00:00 8.3 14 Oeste 35 Sudoeste 0 -- -- 57
2021-02-10 13:00:00 7.9 20 Sudoeste 53 Oeste 0 -- -- 58
2021-02-10 12:00:00 6.5 29 Oeste 64 Sudoeste 0 -- -- 64
2021-02-10 11:00:00 5.6 35 Oeste 71 Sudoeste 0 -- -- 67
2021-02-10 10:00:00 4.8 35 Sudoeste 62 Oeste 0.2 -- -- 70
2021-02-10 09:00:00 4.3 26 Oeste 51 Sudoeste 0 -- -- 70
2021-02-10 08:00:00 3.9 23 Sudoeste 51 Sudoeste 0 -- -- 65
2021-02-10 07:00:00 3.2 22 Oeste 41 Oeste 0.2 -- -- 78
2021-02-10 06:00:00 3.1 20 Oeste 43 Oeste 0 -- -- 85
2021-02-10 05:00:00 3.1 11 Oeste 30 Oeste 0 -- -- 82
2021-02-10 04:00:00 2.1 3 Noroeste 12 Oeste 0.6 -- -- 90
2021-02-10 03:00:00 3.4 4 Oeste 10 Noroeste 0 -- -- 77
2021-02-10 02:00:00 3.5 7 Nordeste 23 Noroeste 0 -- -- 73
2021-02-10 01:00:00 3.3 4 Norte 12 Norte 0 -- -- 75
2021-02-10 00:00:00 2.7 4 Nordeste 11 Norte 0 -- -- 81
2021-02-09 23:00:00 3 2 Norte 13 Noroeste 0 -- -- 84
2021-02-09 22:00:00 3.2 5 Norte 10 Noroeste 0 -- -- 81
2021-02-09 21:00:00 4.4 7 Nordeste 19 Oeste 0 -- -- 76
2021-02-09 20:00:00 5.3 15 Oeste 31 Sudoeste 0 -- -- 63
2021-02-09 19:00:00 4.8 15 Nordeste 20 Norte 0 -- -- 67
2021-02-09 18:00:00 7.1 13 Oeste 30 Sudoeste 0 -- -- 42
2021-02-09 17:00:00 8.8 16 Sudoeste 27 Sudoeste 0 -- -- 36
2021-02-09 16:00:00 8.8 9 Sudoeste 21 Sur 0 -- -- 48
2021-02-09 15:00:00 7.1 5 Nordeste 37 Oeste 0 -- -- 74
2021-02-09 14:00:00 7.6 18 Noroeste 32 Noroeste 0 -- -- 43
2021-02-09 13:00:00 5.5 19 Oeste 39 Oeste 0.8 -- -- 84
2021-02-09 12:00:00 4.6 17 Oeste 27 Noroeste 1.4 -- -- 89
2021-02-09 11:00:00 7.2 8 Nordeste 22 Nordeste 0 -- -- 71
2021-02-09 10:00:00 7 18 Nordeste 30 Nordeste 0 -- -- 69
2021-02-09 09:00:00 7.1 10 Nordeste 33 Nordeste 0 -- -- 66
2021-02-09 08:00:00 7.2 18 Nordeste 33 Norte 0 -- -- 64
2021-02-09 07:00:00 7.6 15 Nordeste 38 Sur 0 -- -- 60
2021-02-09 06:00:00 6.9 14 Sur 28 Sudoeste 0 -- -- 64
2021-02-09 05:00:00 4.9 15 Norte 24 Nordeste 0 -- -- 79
2021-02-09 04:00:00 4.9 5 Nordeste 15 Noroeste 0.2 -- -- 78
2021-02-09 03:00:00 5.4 3 Noroeste 18 Noroeste 0 -- -- 70
2021-02-09 02:00:00 4.7 7 Norte 12 Este 0 -- -- 75
2021-02-09 01:00:00 4.7 4 Norte 11 Nordeste 0 -- -- 76
2021-02-09 00:00:00 4.8 4 Norte 9 Norte 0 -- -- 74
2021-02-08 23:00:00 5.3 7 Norte 10 Norte 0 -- -- 74
2021-02-08 22:00:00 4.8 8 Norte 21 Sudoeste 0 -- -- 76
2021-02-08 21:00:00 5.6 12 Oeste 18 Oeste 0 -- -- 68
2021-02-08 20:00:00 4.7 10 Oeste 17 Sudoeste 0 -- -- 79
2021-02-08 19:00:00 4.9 9 Oeste 41 Sudoeste 0.6 -- -- 82
2021-02-08 18:00:00 5.4 20 Oeste 38 Oeste 0.6 -- -- 84
2021-02-08 17:00:00 7.3 3 Nordeste 26 Noroeste 0 -- -- 84
2021-02-08 16:00:00 6.8 12 Oeste 19 Sudoeste 0.6 -- -- 79
2021-02-08 15:00:00 9.6 6 Sudeste 13 Sudoeste 0 -- -- 66
2021-02-08 14:00:00 10.2 6 Sudeste 16 Oeste 0 -- -- 64
2021-02-08 13:00:00 8.6 6 Sur 18 Sudeste 0 -- -- 60
2021-02-08 12:00:00 9.3 8 Sudeste 15 Sudeste 0 -- -- 64
2021-02-08 11:00:00 7.1 4 Nordeste 11 Sudeste 0 -- -- 70
2021-02-08 10:00:00 6 5 Nordeste 9 Nordeste 0 -- -- 71
2021-02-08 09:00:00 4.3 8 Norte 10 Norte 0 -- -- 78
2021-02-08 08:00:00 4.8 3 Noroeste 11 Sudoeste 0 -- -- 78
2021-02-08 07:00:00 5.4 5 Sudoeste 12 Noroeste 0 -- -- 76
2021-02-08 06:00:00 5.2 5 Norte 9 Este 0 -- -- 75
2021-02-08 05:00:00 5.1 5 Nordeste 13 Norte 0 -- -- 77
2021-02-08 04:00:00 5.2 4 Norte 20 Nordeste 0 -- -- 78
2021-02-08 03:00:00 5.5 4 Norte 13 Norte 0 -- -- 79
2021-02-08 02:00:00 5.3 6 Norte 16 Nordeste 0.2 -- -- 81
2021-02-08 01:00:00 5.5 6 Norte 14 Norte 0 -- -- 80
2021-02-08 00:00:00 5.5 10 Norte 14 Norte 0 -- -- 80
2021-02-07 23:00:00 5.8 8 Noroeste 12 Nordeste 0 -- -- 75
2021-02-07 22:00:00 5 8 Norte 15 Nordeste 0 -- -- 80
2021-02-07 21:00:00 4.3 6 Nordeste 11 Norte 0 -- -- 84
2021-02-07 20:00:00 4.3 7 Nordeste 15 Oeste 0 -- -- 87
2021-02-07 19:00:00 4.4 2 Este 15 Oeste 0.4 -- -- 89
2021-02-07 18:00:00 4.2 14 Oeste 20 Oeste 0.6 -- -- 88
2021-02-07 17:00:00 3.9 7 Sudoeste 15 Oeste 0.2 -- -- 87
2021-02-07 16:00:00 3.7 3 Norte 10 Sur 0.2 -- -- 80
2021-02-07 15:00:00 4.2 5 Sur 10 Sur 0 -- -- 68
2021-02-07 14:00:00 4.1 3 Nordeste 9 Nordeste 0 -- -- 74
2021-02-07 13:00:00 4 3 Nordeste 8 Nordeste 0 -- -- 75
2021-02-07 12:00:00 3 5 Nordeste 8 Nordeste 0 -- -- 67
2021-02-07 11:00:00 1.8 0 Calma 6 Sur 0 -- -- 77
2021-02-07 10:00:00 0.5 5 Norte 7 Norte 0 -- -- 77
2021-02-07 09:00:00 0.3 4 Oeste 8 Sudoeste 0 -- -- 75
2021-02-07 08:00:00 0 0 Calma 14 Oeste 0 -- -- 76
2021-02-07 07:00:00 -0.2 6 Oeste 16 Oeste 0 -- -- 73
2021-02-07 06:00:00 0.2 4 Oeste 20 Oeste 0 -- -- 76
2021-02-07 05:00:00 0.3 8 Noroeste 22 Oeste 0 -- -- 71
2021-02-07 04:00:00 0.8 18 Oeste 26 Oeste 0 -- -- 69
2021-02-07 03:00:00 0.6 22 Oeste 31 Oeste 0 -- -- 76
2021-02-07 02:00:00 0.7 16 Oeste 31 Oeste 0 -- -- 78
2021-02-07 01:00:00 0.9 18 Oeste 35 Sudoeste 0 -- -- 83
2021-02-07 00:00:00 0.9 12 Oeste 31 Oeste 0 -- -- 84
2021-02-06 23:00:00 1.1 23 Oeste 42 Sudoeste 0.2 -- -- 84
2021-02-06 22:00:00 0.5 17 Sudoeste 31 Oeste 0.2 -- -- 94
2021-02-06 21:00:00 0.6 10 Oeste 35 Oeste 0.6 -- -- 92
2021-02-06 20:00:00 1.2 20 Oeste 35 Sudoeste 0.6 -- -- 92
2021-02-06 19:00:00 1.3 14 Oeste 29 Sudoeste 0.6 -- -- 93
2021-02-06 18:00:00 1.3 13 Oeste 23 Oeste 1 -- -- 94
2021-02-06 17:00:00 1.9 9 Oeste 27 Oeste 1.2 -- -- 94
2021-02-06 16:00:00 2.4 18 Sudoeste 31 Oeste 0.6 -- -- 93
2021-02-06 15:00:00 2.3 19 Oeste 31 Oeste 0.8 -- -- 92
2021-02-06 14:00:00 2.6 15 Oeste 37 Sudoeste 1.2 -- -- 92
2021-02-06 13:00:00 2.7 23 Sudoeste 34 Sudoeste 0.6 -- -- 92
2021-02-06 12:00:00 2.6 19 Oeste 28 Oeste 1 -- -- 92
2021-02-06 11:00:00 2.7 15 Oeste 26 Oeste 0.6 -- -- 92
2021-02-06 10:00:00 2.7 17 Oeste 25 Oeste 0.2 -- -- 92
2021-02-06 09:00:00 2.7 16 Oeste 23 Oeste 0.6 -- -- 91
2021-02-06 08:00:00 2.6 18 Oeste 23 Oeste 1.4 -- -- 91
2021-02-06 07:00:00 2.9 13 Oeste 20 Oeste 2.6 -- -- 91
2021-02-06 06:00:00 3.1 8 Sudoeste 12 Oeste 3.8 -- -- 97
2021-02-06 05:00:00 3.5 3 Sudeste 10 Sudoeste 3.4 -- -- 99
2021-02-06 04:00:00 3.7 8 Sudoeste 17 Sudoeste 2.4 -- -- 99
2021-02-06 03:00:00 3.9 10 Sudoeste 15 Oeste 4.8 -- -- 99
2021-02-06 02:00:00 4.5 5 Sur 15 Sur 5 -- -- 100
2021-02-06 01:00:00 4.5 5 Oeste 16 Sudoeste 5.4 -- -- 99
2021-02-06 00:00:00 4.9 10 Sudoeste 21 Sudoeste 7 -- -- 97
2021-02-05 23:00:00 5.3 10 Sudoeste 19 Sudoeste 4.4 -- -- 99
2021-02-05 22:00:00 5.3 2 Sudeste 6 Norte 2.8 -- -- 100
2021-02-05 21:00:00 5.4 2 Este 5 Sudoeste 2.6 -- -- 100
2021-02-05 20:00:00 5.3 0 Calma 5 Sudoeste 1.6 -- -- 99
2021-02-05 19:00:00 5.3 0 Calma 5 Nordeste 0.2 -- -- 99
2021-02-05 18:00:00 5.3 3 Nordeste 5 Nordeste 0.4 -- -- 99
2021-02-05 17:00:00 5.3 0 Calma 5 Sur 0.4 -- -- 99
2021-02-05 16:00:00 5.5 2 Sudeste 7 Sudoeste 0 -- -- 98
2021-02-05 15:00:00 5.3 3 Sur 6 Sur 0 -- -- 98
2021-02-05 14:00:00 5 2 Norte 8 Sudoeste 0 -- -- 96
2021-02-05 13:00:00 4.8 4 Sudoeste 7 Sudoeste 0.8 -- -- 98
2021-02-05 12:00:00 4.7 4 Nordeste 6 Oeste 1.2 -- -- 99
2021-02-05 11:00:00 4.2 3 Norte 10 Nordeste 0.8 -- -- 99
2021-02-05 10:00:00 5.2 4 Oeste 7 Sudoeste 1.2 -- -- 91
2021-02-05 09:00:00 4.5 2 Sudoeste 6 Oeste 0.8 -- -- 97
2021-02-05 08:00:00 4.7 4 Norte 7 Sudoeste 0.2 -- -- 95
2021-02-05 07:00:00 4.7 5 Sudoeste 7 Sudoeste 0.2 -- -- 94
2021-02-05 06:00:00 4.8 5 Sudoeste 8 Sudoeste 0.2 -- -- 93
2021-02-05 05:00:00 4.8 2 Norte 5 Norte 0.2 -- -- 91
2021-02-05 04:00:00 5 4 Oeste 8 Sudoeste 0 -- -- 88
2021-02-05 03:00:00 4.8 4 Este 6 Norte 0 -- -- 89
2021-02-05 02:00:00 4.5 3 Oeste 6 Norte 0 -- -- 90
2021-02-05 01:00:00 4.5 3 Norte 8 Sudoeste 0 -- -- 92
2021-02-05 00:00:00 4.7 2 Sur 5 Nordeste 0 -- -- 89
2021-02-04 23:00:00 5.2 3 Oeste 15 Oeste 0.2 -- -- 87
2021-02-04 22:00:00 5.2 12 Oeste 17 Oeste 0 -- -- 84
2021-02-04 21:00:00 4.5 4 Sudoeste 9 Sudoeste 0 -- -- 89
2021-02-04 20:00:00 4.9 3 Norte 8 Oeste 0 -- -- 83
2021-02-04 19:00:00 5.1 6 Oeste 10 Oeste 0 -- -- 82
2021-02-04 18:00:00 5.1 0 Calma 9 Nordeste 0 -- -- 85
2021-02-04 17:00:00 5.7 5 Nordeste 9 Nordeste 0.2 -- -- 83
2021-02-04 16:00:00 6.6 3 Este 8 Este 0.2 -- -- 79
2021-02-04 15:00:00 7.7 3 Sudeste 7 Sudoeste 0 -- -- 69
2021-02-04 14:00:00 8.3 2 Este 9 Nordeste 0 -- -- 64
2021-02-04 13:00:00 8.8 3 Sudeste 8 Sudeste 0 -- -- 60
2021-02-04 12:00:00 8.5 3 Este 9 Nordeste 0 -- -- 57
2021-02-04 11:00:00 8 3 Sudeste 7 Sudeste 0 -- -- 59
2021-02-04 10:00:00 7.1 2 Norte 10 Noroeste 0 -- -- 56
2021-02-04 09:00:00 6.5 7 Norte 11 Norte 0 -- -- 60
2021-02-04 08:00:00 6.9 0 Calma 10 Norte 0 -- -- 54
2021-02-04 07:00:00 7.2 4 Oeste 17 Noroeste 0 -- -- 51
2021-02-04 06:00:00 7.3 4 Noroeste 15 Noroeste 0 -- -- 55
2021-02-04 05:00:00 6.6 9 Norte 17 Nordeste 0 -- -- 64
2021-02-04 04:00:00 7.1 5 Nordeste 18 Nordeste 0 -- -- 61
2021-02-04 03:00:00 7.9 8 Nordeste 27 Este 0 -- -- 60
2021-02-04 02:00:00 9.4 6 Oeste 30 Oeste 0 -- -- 51
2021-02-04 01:00:00 9.6 18 Sudoeste 44 Sudoeste 0 -- -- 52
2021-02-04 00:00:00 9.9 15 Sudoeste 52 Sudoeste 0 -- -- 50
2021-02-03 23:00:00 10.2 24 Sudoeste 48 Oeste 0 -- -- 45
2021-02-03 22:00:00 9.8 18 Sudoeste 35 Sudoeste 0 -- -- 47
2021-02-03 21:00:00 7.6 5 Oeste 28 Oeste 0 -- -- 65
2021-02-03 20:00:00 6.9 5 Oeste 9 Sudoeste 0 -- -- 77
2021-02-03 19:00:00 6.8 2 Sur 10 Sudoeste 0 -- -- 82
2021-02-03 18:00:00 8.2 3 Nordeste 12 Sur 0 -- -- 77
2021-02-03 17:00:00 11.4 0 Calma 13 Nordeste 0 -- -- 63
2021-02-03 16:00:00 13.7 5 Sudeste 37 Oeste 0 -- -- 47
2021-02-03 15:00:00 13.1 19 Sudoeste 50 Sudoeste 0 -- -- 38
2021-02-03 14:00:00 12.4 14 Oeste 39 Sudoeste 0 -- -- 44
2021-02-03 13:00:00 11.9 19 Oeste 33 Sudoeste 0 -- -- 40
2021-02-03 12:00:00 12 8 Sudeste 19 Noroeste 0 -- -- 55
2021-02-03 11:00:00 11.5 8 Sudoeste 23 Sur 0 -- -- 39
2021-02-03 10:00:00 10.4 9 Oeste 19 Noroeste 0 -- -- 57
2021-02-03 09:00:00 8 9 Norte 15 Norte 0 -- -- 78
2021-02-03 08:00:00 7.8 5 Noroeste 13 Sudoeste 0.2 -- -- 90
2021-02-03 07:00:00 7.7 7 Sudoeste 14 Sudoeste 0.2 -- -- 93
2021-02-03 06:00:00 8.7 6 Sudeste 14 Norte 0.2 -- -- 85
2021-02-03 05:00:00 10.7 9 Oeste 17 Noroeste 0 -- -- 68
2021-02-03 04:00:00 11.4 12 Sudoeste 36 Sudoeste 0 -- -- 61
2021-02-03 03:00:00 11.9 33 Sudoeste 78 Sudoeste 0 -- -- 58
2021-02-03 02:00:00 12.5 48 Sudoeste 74 Sudoeste 0 -- -- 53
2021-02-03 01:00:00 13.1 40 Sudoeste 81 Sudoeste 0.2 -- -- 51
2021-02-03 00:00:00 10.8 13 Nordeste 32 Nordeste 0 -- -- 63